Time;durP1;ratioP1;P1;durP2;ratioP2;P2;SDS_P1;SDS_P2;PMS_P1;PMS_P2;Temp;Humidity;BMP_temperature;BMP_pressure;BME280_temperature;BME280_humidity;BME280_pressure;Samples;Min_cycle;Max_cycle;Signal;HPM_P1;HPM_P2
2024/01/06 00:01:49;;;;;;;14.05;10.55;;;;;;;;;;5050240;28;20036;-66
2024/01/06 00:04:15;;;;;;;14.30;10.30;;;;;;;;;;5050695;28;20372;-66
2024/01/06 00:06:41;;;;;;;15.20;10.50;;;;;;;;;;5049796;28;20029;-66
2024/01/06 00:09:07;;;;;;;17.55;11.30;;;;;;;;;;5050750;28;20036;-66
2024/01/06 00:11:33;;;;;;;14.95;11.13;;;;;;;;;;5050129;28;20099;-67
2024/01/06 00:13:59;;;;;;;15.48;10.57;;;;;;;;;;5049914;28;20041;-66
2024/01/06 00:16:25;;;;;;;17.48;11.38;;;;;;;;;;5049618;28;20036;-67
2024/01/06 00:18:51;;;;;;;14.90;10.80;;;;;;;;;;5050489;28;20036;-66
2024/01/06 00:21:17;;;;;;;15.82;11.48;;;;;;;;;;5049801;28;20036;-66
2024/01/06 00:23:43;;;;;;;15.50;10.50;;;;;;;;;;5050361;28;20044;-66
2024/01/06 00:26:10;;;;;;;16.05;11.02;;;;;;;;;;5050357;28;20663;-66
2024/01/06 00:28:36;;;;;;;14.35;10.43;;;;;;;;;;5044781;28;20067;-66
2024/01/06 00:31:03;;;;;;;16.35;10.77;;;;;;;;;;5062018;28;20698;-66
2024/01/06 00:33:29;;;;;;;13.73;10.13;;;;;;;;;;5049515;28;20131;-66
2024/01/06 00:35:55;;;;;;;12.90;9.63;;;;;;;;;;5049431;28;20131;-66
2024/01/06 00:38:21;;;;;;;14.90;10.45;;;;;;;;;;5049696;28;20032;-66
2024/01/06 00:40:48;;;;;;;15.13;10.85;;;;;;;;;;5049790;28;20041;-66
2024/01/06 00:43:14;;;;;;;16.83;11.40;;;;;;;;;;5047318;28;20044;-66
2024/01/06 00:45:40;;;;;;;17.73;11.02;;;;;;;;;;5048785;28;20032;-66
2024/01/06 00:48:06;;;;;;;15.95;10.15;;;;;;;;;;5049681;28;20053;-66
2024/01/06 00:50:32;;;;;;;15.43;10.07;;;;;;;;;;5049055;28;21606;-66
2024/01/06 00:52:58;;;;;;;15.77;10.60;;;;;;;;;;5048930;28;20120;-66
2024/01/06 00:55:24;;;;;;;12.93;9.60;;;;;;;;;;5049672;28;20511;-66
2024/01/06 00:57:51;;;;;;;14.00;9.70;;;;;;;;;;5047838;28;20107;-66
2024/01/06 01:00:17;;;;;;;15.13;10.38;;;;;;;;;;5049473;28;20032;-66
2024/01/06 01:02:43;;;;;;;14.07;10.05;;;;;;;;;;5049570;28;20878;-66
2024/01/06 01:05:09;;;;;;;16.02;10.15;;;;;;;;;;5049510;28;20039;-66
2024/01/06 01:07:36;;;;;;;16.20;10.25;;;;;;;;;;5048423;28;20353;-66
2024/01/06 01:10:02;;;;;;;14.55;9.95;;;;;;;;;;5049156;28;20067;-66
2024/01/06 01:12:28;;;;;;;15.18;10.95;;;;;;;;;;5048510;28;20040;-66
2024/01/06 01:14:54;;;;;;;15.65;11.02;;;;;;;;;;5049088;28;20056;-66
2024/01/06 01:17:20;;;;;;;12.98;9.32;;;;;;;;;;5049042;28;20032;-66
2024/01/06 01:19:46;;;;;;;16.55;10.60;;;;;;;;;;5049403;28;20089;-66
2024/01/06 01:22:13;;;;;;;13.27;8.80;;;;;;;;;;5048853;28;20033;-66
2024/01/06 01:24:39;;;;;;;15.45;9.32;;;;;;;;;;5048160;28;20043;-66
2024/01/06 01:27:05;;;;;;;15.10;9.65;;;;;;;;;;5048923;28;20495;-66
2024/01/06 01:29:31;;;;;;;15.98;9.48;;;;;;;;;;5048978;28;21925;-66
2024/01/06 01:31:57;;;;;;;13.80;10.05;;;;;;;;;;5049140;28;20036;-66
2024/01/06 01:34:23;;;;;;;13.13;9.35;;;;;;;;;;5049271;28;20032;-66
2024/01/06 01:36:50;;;;;;;16.50;9.15;;;;;;;;;;5047417;28;20064;-66
2024/01/06 01:39:16;;;;;;;13.48;9.40;;;;;;;;;;5048041;28;20915;-66
2024/01/06 01:41:42;;;;;;;16.10;9.13;;;;;;;;;;5048126;28;21752;-66
2024/01/06 01:44:08;;;;;;;12.95;8.77;;;;;;;;;;5048537;28;20039;-66
2024/01/06 01:46:34;;;;;;;13.65;8.43;;;;;;;;;;5048762;28;20036;-66
2024/01/06 01:49:01;;;;;;;12.60;8.38;;;;;;;;;;5048189;28;20032;-66
2024/01/06 01:51:29;;;;;;;11.88;8.43;;;;;;;;;;5048440;28;20077;-66
2024/01/06 01:53:55;;;;;;;11.77;8.02;;;;;;;;;;5047849;28;20036;-66
2024/01/06 01:56:21;;;;;;;12.27;8.75;;;;;;;;;;5047739;28;20039;-66
2024/01/06 01:58:48;;;;;;;11.77;7.65;;;;;;;;;;5049022;28;20044;-66
2024/01/06 02:01:14;;;;;;;13.55;8.32;;;;;;;;;;5048692;28;20039;-66
2024/01/06 02:03:45;;;;;;;11.25;7.75;;;;;;;;;;5048492;28;20051;-66
2024/01/06 02:06:11;;;;;;;12.25;7.68;;;;;;;;;;5049043;28;20123;-66
2024/01/06 02:08:37;;;;;;;12.20;8.00;;;;;;;;;;5048498;28;20063;-66
2024/01/06 02:11:04;;;;;;;12.13;7.47;;;;;;;;;;5046450;28;20037;-66
2024/01/06 02:13:35;;;;;;;11.02;7.97;;;;;;;;;;5048969;28;20067;-66
2024/01/06 02:16:01;;;;;;;12.20;8.55;;;;;;;;;;5049110;28;20036;-66
2024/01/06 02:18:27;;;;;;;11.32;7.18;;;;;;;;;;5056541;28;20083;-66
2024/01/06 02:20:53;;;;;;;12.15;7.18;;;;;;;;;;5048048;28;20037;-66
2024/01/06 02:23:19;;;;;;;12.93;8.52;;;;;;;;;;5047807;28;20134;-66
2024/01/06 02:25:45;;;;;;;12.10;7.45;;;;;;;;;;5048481;28;20032;-66
2024/01/06 02:28:11;;;;;;;13.25;7.60;;;;;;;;;;5038092;28;20776;-66
2024/01/06 02:30:38;;;;;;;12.35;8.00;;;;;;;;;;5047960;28;20445;-66
2024/01/06 02:33:05;;;;;;;9.35;6.30;;;;;;;;;;5048212;28;20064;-66
2024/01/06 02:35:31;;;;;;;10.75;7.10;;;;;;;;;;5048793;28;20032;-67
2024/01/06 02:37:57;;;;;;;10.98;7.18;;;;;;;;;;5048507;28;20044;-66
2024/01/06 02:40:23;;;;;;;12.68;7.80;;;;;;;;;;5047309;28;20044;-66
2024/01/06 02:42:49;;;;;;;10.98;6.95;;;;;;;;;;5045940;28;20040;-66
2024/01/06 02:45:15;;;;;;;13.05;7.88;;;;;;;;;;5048256;28;20712;-66
2024/01/06 02:47:41;;;;;;;14.15;7.95;;;;;;;;;;5048353;28;20029;-66
2024/01/06 02:50:07;;;;;;;12.18;8.07;;;;;;;;;;5048584;28;20043;-66
2024/01/06 02:52:33;;;;;;;13.05;7.28;;;;;;;;;;5061419;28;21670;-66
2024/01/06 02:55:00;;;;;;;11.38;7.82;;;;;;;;;;5047307;28;20036;-66
2024/01/06 02:57:26;;;;;;;13.23;7.47;;;;;;;;;;5048162;28;20037;-66
2024/01/06 02:59:52;;;;;;;12.00;7.55;;;;;;;;;;5047448;28;20033;-66
2024/01/06 03:02:18;;;;;;;15.27;9.05;;;;;;;;;;5051497;28;20043;-66
2024/01/06 03:04:45;;;;;;;14.45;8.77;;;;;;;;;;5052131;28;21022;-66
2024/01/06 03:07:11;;;;;;;13.02;8.48;;;;;;;;;;5051452;28;20742;-66
2024/01/06 03:09:38;;;;;;;13.57;8.45;;;;;;;;;;5051026;28;20024;-66
2024/01/06 03:12:05;;;;;;;14.60;9.32;;;;;;;;;;5051646;28;20148;-66
2024/01/06 03:14:31;;;;;;;17.30;9.65;;;;;;;;;;5049854;28;20093;-66
2024/01/06 03:16:58;;;;;;;19.05;9.13;;;;;;;;;;5049995;28;20036;-66
2024/01/06 03:19:27;;;;;;;15.25;9.77;;;;;;;;;;5051976;28;20071;-66
2024/01/06 03:21:53;;;;;;;13.32;9.27;;;;;;;;;;5051609;28;20056;-66
2024/01/06 03:24:19;;;;;;;17.67;9.73;;;;;;;;;;5050342;28;20044;-66
2024/01/06 03:26:45;;;;;;;16.00;9.82;;;;;;;;;;5051061;28;20036;-66
2024/01/06 03:29:11;;;;;;;14.35;10.38;;;;;;;;;;5051251;28;20036;-66
2024/01/06 03:31:37;;;;;;;18.65;11.00;;;;;;;;;;5049192;28;20044;-66
2024/01/06 03:34:03;;;;;;;15.73;10.10;;;;;;;;;;5050942;28;20119;-66
2024/01/06 03:36:29;;;;;;;16.85;10.27;;;;;;;;;;5050127;28;20043;-66
2024/01/06 03:38:55;;;;;;;16.60;10.52;;;;;;;;;;5051045;28;20045;-66
2024/01/06 03:41:21;;;;;;;16.65;10.10;;;;;;;;;;5050821;28;20067;-66
2024/01/06 03:43:48;;;;;;;16.83;10.00;;;;;;;;;;5049827;28;20133;-67
2024/01/06 03:46:14;;;;;;;16.83;11.32;;;;;;;;;;5051031;28;20137;-66
2024/01/06 03:48:40;;;;;;;16.27;10.02;;;;;;;;;;5050595;28;20040;-66
2024/01/06 03:51:06;;;;;;;15.18;10.57;;;;;;;;;;5050268;28;20037;-66
2024/01/06 03:53:32;;;;;;;15.38;10.50;;;;;;;;;;5051158;28;20028;-66
2024/01/06 03:55:59;;;;;;;14.85;10.32;;;;;;;;;;5050606;28;20040;-66
2024/01/06 03:58:25;;;;;;;16.13;10.75;;;;;;;;;;5050810;28;21367;-66
2024/01/06 04:00:51;;;;;;;14.35;9.63;;;;;;;;;;5050363;28;20124;-66
2024/01/06 04:03:17;;;;;;;14.82;9.82;;;;;;;;;;5050422;28;20052;-66
2024/01/06 04:05:43;;;;;;;15.45;9.70;;;;;;;;;;5064574;28;20111;-66
2024/01/06 04:08:09;;;;;;;15.77;9.57;;;;;;;;;;5050005;28;20043;-66
2024/01/06 04:10:35;;;;;;;17.92;10.52;;;;;;;;;;5050395;28;20040;-66
2024/01/06 04:13:01;;;;;;;13.95;9.27;;;;;;;;;;5049700;28;20124;-66
2024/01/06 04:15:27;;;;;;;14.80;9.43;;;;;;;;;;5050829;28;20159;-66
2024/01/06 04:17:53;;;;;;;14.55;9.27;;;;;;;;;;5049984;28;20036;-66
2024/01/06 04:20:19;;;;;;;15.63;9.60;;;;;;;;;;5050628;28;20036;-66
2024/01/06 04:22:45;;;;;;;16.77;9.18;;;;;;;;;;5050166;28;20071;-66
2024/01/06 04:25:11;;;;;;;14.93;9.00;;;;;;;;;;5050123;28;21643;-66
2024/01/06 04:27:37;;;;;;;13.52;9.45;;;;;;;;;;5050554;28;20036;-66
2024/01/06 04:30:03;;;;;;;12.63;8.65;;;;;;;;;;5050246;28;20085;-66
2024/01/06 04:32:29;;;;;;;15.63;8.90;;;;;;;;;;5049979;28;20024;-66
2024/01/06 04:34:57;;;;;;;13.30;8.90;;;;;;;;;;5049719;28;20028;-66
2024/01/06 04:37:23;;;;;;;20.55;10.52;;;;;;;;;;5049589;28;20029;-66
2024/01/06 04:39:50;;;;;;;17.13;9.63;;;;;;;;;;5049633;28;20890;-66
2024/01/06 04:42:16;;;;;;;16.15;9.63;;;;;;;;;;5048101;28;20067;-66
2024/01/06 04:44:42;;;;;;;15.45;9.25;;;;;;;;;;5048582;28;20041;-66
2024/01/06 04:47:08;;;;;;;14.73;9.23;;;;;;;;;;5049693;28;20037;-66
2024/01/06 04:49:34;;;;;;;15.05;9.10;;;;;;;;;;5049653;28;20032;-66
2024/01/06 04:52:00;;;;;;;14.85;9.30;;;;;;;;;;5049526;28;21292;-66
2024/01/06 04:54:26;;;;;;;15.82;9.35;;;;;;;;;;5049210;28;20661;-66
2024/01/06 04:56:52;;;;;;;15.88;8.57;;;;;;;;;;5050190;28;20657;-66
2024/01/06 04:59:18;;;;;;;14.90;9.00;;;;;;;;;;5049211;28;20056;-66
2024/01/06 05:01:44;;;;;;;13.73;8.73;;;;;;;;;;5049193;28;20380;-66
2024/01/06 05:04:10;;;;;;;14.48;9.05;;;;;;;;;;5049342;28;20047;-66
2024/01/06 05:06:36;;;;;;;15.13;8.13;;;;;;;;;;5049529;28;20039;-66
2024/01/06 05:09:02;;;;;;;15.40;9.07;;;;;;;;;;5048817;28;20029;-67
2024/01/06 05:11:28;;;;;;;12.25;7.88;;;;;;;;;;5048919;28;20024;-66
2024/01/06 05:13:54;;;;;;;11.73;7.70;;;;;;;;;;5049539;28;20036;-66
2024/01/06 05:16:20;;;;;;;12.32;7.97;;;;;;;;;;5047940;28;20033;-66
2024/01/06 05:18:47;;;;;;;14.07;8.45;;;;;;;;;;5049681;28;20039;-66
2024/01/06 05:21:13;;;;;;;13.25;8.57;;;;;;;;;;5048082;28;20635;-66
2024/01/06 05:23:39;;;;;;;12.60;8.40;;;;;;;;;;5048367;28;20051;-66
2024/01/06 05:26:05;;;;;;;14.43;9.13;;;;;;;;;;5048778;28;20039;-66
2024/01/06 05:28:31;;;;;;;13.13;8.40;;;;;;;;;;5049191;28;20036;-66
2024/01/06 05:30:57;;;;;;;16.10;8.50;;;;;;;;;;5048228;28;20040;-66
2024/01/06 05:33:23;;;;;;;13.02;8.63;;;;;;;;;;5048660;28;20124;-66
2024/01/06 05:35:49;;;;;;;12.52;8.70;;;;;;;;;;5048348;28;20048;-66
2024/01/06 05:38:17;;;;;;;12.63;7.93;;;;;;;;;;5048420;28;20036;-66
2024/01/06 05:40:43;;;;;;;12.98;8.10;;;;;;;;;;5048193;28;20472;-66
2024/01/06 05:43:09;;;;;;;12.77;7.95;;;;;;;;;;5049480;28;20071;-66
2024/01/06 05:45:36;;;;;;;11.60;7.43;;;;;;;;;;5048648;28;20105;-66
2024/01/06 05:48:02;;;;;;;11.18;7.80;;;;;;;;;;5049411;28;20081;-66
2024/01/06 05:50:29;;;;;;;11.07;7.82;;;;;;;;;;5048539;28;20384;-66
2024/01/06 05:52:55;;;;;;;12.38;7.47;;;;;;;;;;5049011;28;20063;-66
2024/01/06 05:55:22;;;;;;;11.77;8.10;;;;;;;;;;5049346;28;21766;-66
2024/01/06 05:57:48;;;;;;;12.38;7.95;;;;;;;;;;5047448;28;20066;-66
2024/01/06 06:00:14;;;;;;;11.80;8.20;;;;;;;;;;5048987;28;20048;-66
2024/01/06 06:02:40;;;;;;;14.82;9.02;;;;;;;;;;5048592;28;20040;-66
2024/01/06 06:05:07;;;;;;;12.88;8.18;;;;;;;;;;5048222;28;20039;-66
2024/01/06 06:07:38;;;;;;;12.20;8.45;;;;;;;;;;5048514;28;20046;-66
2024/01/06 06:10:04;;;;;;;13.77;8.88;;;;;;;;;;5056813;28;20033;-66
2024/01/06 06:12:30;;;;;;;12.90;8.18;;;;;;;;;;5048165;28;20037;-66
2024/01/06 06:14:57;;;;;;;14.40;8.45;;;;;;;;;;5048260;28;20033;-66
2024/01/06 06:17:23;;;;;;;11.95;7.75;;;;;;;;;;5048922;28;20787;-66
2024/01/06 06:19:49;;;;;;;12.77;8.63;;;;;;;;;;5048656;28;20087;-67
2024/01/06 06:22:15;;;;;;;12.20;7.85;;;;;;;;;;5048552;28;20564;-66
2024/01/06 06:24:41;;;;;;;14.70;9.02;;;;;;;;;;5048364;28;20048;-66
2024/01/06 06:27:07;;;;;;;14.68;8.90;;;;;;;;;;5048509;28;20077;-66
2024/01/06 06:29:33;;;;;;;12.30;8.13;;;;;;;;;;5046839;28;20036;-66
2024/01/06 06:31:59;;;;;;;13.85;8.20;;;;;;;;;;5048094;28;20033;-66
2024/01/06 06:34:25;;;;;;;12.43;8.35;;;;;;;;;;5046854;28;20044;-66
2024/01/06 06:36:51;;;;;;;13.65;9.07;;;;;;;;;;5049635;28;20033;-66
2024/01/06 06:39:18;;;;;;;12.48;8.68;;;;;;;;;;5051354;28;20094;-67
2024/01/06 06:41:44;;;;;;;14.30;8.55;;;;;;;;;;5051452;28;20033;-67
2024/01/06 06:44:10;;;;;;;13.95;8.63;;;;;;;;;;5049594;28;20028;-67
2024/01/06 06:46:36;;;;;;;12.82;8.95;;;;;;;;;;5049857;28;20037;-67
2024/01/06 06:49:02;;;;;;;12.88;8.43;;;;;;;;;;5049905;28;20043;-66
2024/01/06 06:51:30;;;;;;;15.80;8.75;;;;;;;;;;5052389;28;20036;-66
2024/01/06 06:53:56;;;;;;;14.13;9.63;;;;;;;;;;5051921;28;20068;-66
2024/01/06 06:56:23;;;;;;;16.00;9.88;;;;;;;;;;5052516;28;20123;-66
2024/01/06 06:58:49;;;;;;;14.18;9.43;;;;;;;;;;5051227;28;20024;-66
2024/01/06 07:01:15;;;;;;;15.88;9.73;;;;;;;;;;5045724;28;20069;-66
2024/01/06 07:03:41;;;;;;;14.63;10.07;;;;;;;;;;5049298;28;20570;-66
2024/01/06 07:06:08;;;;;;;12.93;9.48;;;;;;;;;;5050800;28;20031;-66
2024/01/06 07:08:34;;;;;;;17.65;10.98;;;;;;;;;;5059346;28;20395;-66
2024/01/06 07:11:00;;;;;;;17.50;10.63;;;;;;;;;;5050274;28;21621;-66
2024/01/06 07:13:26;;;;;;;16.30;11.18;;;;;;;;;;5050870;28;20044;-66
2024/01/06 07:15:52;;;;;;;16.52;10.05;;;;;;;;;;5051861;28;20040;-67
2024/01/06 07:18:22;;;;;;;16.50;10.52;;;;;;;;;;5048804;28;20041;-66
2024/01/06 07:20:48;;;;;;;15.10;10.13;;;;;;;;;;5051808;28;20036;-66
2024/01/06 07:23:15;;;;;;;16.83;10.52;;;;;;;;;;5051491;28;20045;-66
2024/01/06 07:25:41;;;;;;;18.15;11.02;;;;;;;;;;5050646;28;20112;-66
2024/01/06 07:28:08;;;;;;;16.92;10.77;;;;;;;;;;5051481;28;20036;-66
2024/01/06 07:30:34;;;;;;;18.60;10.50;;;;;;;;;;5050977;28;20037;-66
2024/01/06 07:33:00;;;;;;;15.70;10.63;;;;;;;;;;5049152;28;20068;-66
2024/01/06 07:35:26;;;;;;;16.63;10.35;;;;;;;;;;5050408;28;20083;-66
2024/01/06 07:37:53;;;;;;;16.17;10.35;;;;;;;;;;5049484;28;20037;-66
2024/01/06 07:40:19;;;;;;;14.40;10.27;;;;;;;;;;5050362;28;20037;-66
2024/01/06 07:42:45;;;;;;;14.80;10.02;;;;;;;;;;5050880;28;20040;-66
2024/01/06 07:45:13;;;;;;;17.10;10.30;;;;;;;;;;5050091;28;20185;-66
2024/01/06 07:47:39;;;;;;;15.13;10.40;;;;;;;;;;5049294;28;20030;-66
2024/01/06 07:50:05;;;;;;;17.85;10.77;;;;;;;;;;5062954;28;20934;-66
2024/01/06 07:52:32;;;;;;;15.65;11.02;;;;;;;;;;5064263;28;20027;-66
2024/01/06 07:54:58;;;;;;;17.65;10.23;;;;;;;;;;5047685;28;20143;-66
2024/01/06 07:57:24;;;;;;;16.02;10.48;;;;;;;;;;5049127;28;20120;-66
2024/01/06 07:59:50;;;;;;;17.55;12.00;;;;;;;;;;5051016;28;20147;-66
2024/01/06 08:02:17;;;;;;;17.40;11.73;;;;;;;;;;5041129;28;20048;-66
2024/01/06 08:04:43;;;;;;;15.70;11.60;;;;;;;;;;5051157;28;20047;-66
2024/01/06 08:07:09;;;;;;;19.75;11.77;;;;;;;;;;5049398;28;20067;-66
2024/01/06 08:09:35;;;;;;;16.30;11.93;;;;;;;;;;5049941;28;20327;-66
2024/01/06 08:12:03;;;;;;;16.73;11.77;;;;;;;;;;5050034;28;20033;-66
2024/01/06 08:14:29;;;;;;;17.83;11.25;;;;;;;;;;5049668;28;20040;-66
2024/01/06 08:16:55;;;;;;;18.25;11.38;;;;;;;;;;5050512;28;20813;-66
2024/01/06 08:19:21;;;;;;;15.50;11.35;;;;;;;;;;5050608;28;20033;-66
2024/01/06 08:21:47;;;;;;;18.40;12.35;;;;;;;;;;5063684;28;20028;-66
2024/01/06 08:24:14;;;;;;;20.67;12.40;;;;;;;;;;5048753;28;20083;-66
2024/01/06 08:26:40;;;;;;;19.95;12.63;;;;;;;;;;5050380;28;21764;-66
2024/01/06 08:29:06;;;;;;;22.27;12.63;;;;;;;;;;5049979;28;20035;-66
2024/01/06 08:31:33;;;;;;;17.35;11.93;;;;;;;;;;5049956;28;20543;-66
2024/01/06 08:33:59;;;;;;;14.82;10.57;;;;;;;;;;5049587;28;20036;-66
2024/01/06 08:36:25;;;;;;;17.63;11.82;;;;;;;;;;5049549;28;20044;-66
2024/01/06 08:38:51;;;;;;;17.23;10.88;;;;;;;;;;5049681;28;20131;-66
2024/01/06 08:41:17;;;;;;;16.98;11.55;;;;;;;;;;5049462;28;20037;-66
2024/01/06 08:43:43;;;;;;;15.50;10.38;;;;;;;;;;5049350;28;20036;-66
2024/01/06 08:46:10;;;;;;;15.82;11.07;;;;;;;;;;5050552;28;20886;-66
2024/01/06 08:48:36;;;;;;;18.20;11.85;;;;;;;;;;5049785;28;20659;-66
2024/01/06 08:51:02;;;;;;;18.30;12.00;;;;;;;;;;5049563;28;20047;-66
2024/01/06 08:53:28;;;;;;;13.52;10.52;;;;;;;;;;5049071;28;20062;-66
2024/01/06 08:55:54;;;;;;;16.67;10.65;;;;;;;;;;5048673;28;20064;-66
2024/01/06 08:58:20;;;;;;;16.10;11.32;;;;;;;;;;5048155;28;20059;-66
2024/01/06 09:00:46;;;;;;;15.40;10.85;;;;;;;;;;5049206;28;20072;-66
2024/01/06 09:03:12;;;;;;;17.63;11.40;;;;;;;;;;5046774;28;20115;-66
2024/01/06 09:05:38;;;;;;;15.60;10.88;;;;;;;;;;5048066;28;20031;-66
2024/01/06 09:08:04;;;;;;;18.08;10.95;;;;;;;;;;5048373;28;20033;-66
2024/01/06 09:10:30;;;;;;;15.52;11.02;;;;;;;;;;5048165;28;20106;-66
2024/01/06 09:12:56;;;;;;;15.55;9.43;;;;;;;;;;5048438;28;20059;-66
2024/01/06 09:15:23;;;;;;;16.73;11.18;;;;;;;;;;5049217;28;20032;-66
2024/01/06 09:17:49;;;;;;;16.40;10.50;;;;;;;;;;5047950;28;20040;-66
2024/01/06 09:20:17;;;;;;;17.05;10.80;;;;;;;;;;5040156;28;20043;-66
2024/01/06 09:22:43;;;;;;;15.95;10.82;;;;;;;;;;5048818;28;20586;-66
2024/01/06 09:25:09;;;;;;;17.52;11.15;;;;;;;;;;5048856;28;21722;-66
2024/01/06 09:27:35;;;;;;;16.10;10.25;;;;;;;;;;5049615;28;20744;-66
2024/01/06 09:30:01;;;;;;;15.95;10.07;;;;;;;;;;5047229;28;20032;-66
2024/01/06 09:32:27;;;;;;;15.40;10.38;;;;;;;;;;5036655;28;20056;-66
2024/01/06 09:34:53;;;;;;;14.73;10.15;;;;;;;;;;5043551;28;20467;-66
2024/01/06 09:37:19;;;;;;;15.27;9.45;;;;;;;;;;5046141;28;20036;-66
2024/01/06 09:39:45;;;;;;;16.55;9.88;;;;;;;;;;5045035;28;20657;-66
2024/01/06 09:42:11;;;;;;;14.25;9.60;;;;;;;;;;5045007;28;20040;-66
2024/01/06 09:44:37;;;;;;;15.90;9.98;;;;;;;;;;5047615;28;20448;-66
2024/01/06 09:47:05;;;;;;;13.60;9.77;;;;;;;;;;5046227;28;20029;-66
2024/01/06 09:49:33;;;;;;;14.95;9.13;;;;;;;;;;5046523;28;20033;-66
2024/01/06 09:51:59;;;;;;;14.20;9.25;;;;;;;;;;5046948;28;20028;-66
2024/01/06 09:54:26;;;;;;;14.80;9.40;;;;;;;;;;5047388;28;20037;-66
2024/01/06 09:56:52;;;;;;;14.30;9.85;;;;;;;;;;5047676;28;20044;-66
2024/01/06 09:59:22;;;;;;;14.80;9.82;;;;;;;;;;5046364;28;20150;-66
2024/01/06 10:01:49;;;;;;;16.42;9.27;;;;;;;;;;5047109;28;20033;-67
2024/01/06 10:04:15;;;;;;;13.88;9.38;;;;;;;;;;5046063;28;20040;-66
2024/01/06 10:06:42;;;;;;;19.13;10.40;;;;;;;;;;5046761;28;20071;-66
2024/01/06 10:09:08;;;;;;;13.20;9.77;;;;;;;;;;5046829;28;20060;-66
2024/01/06 10:11:36;;;;;;;16.63;10.30;;;;;;;;;;5045747;28;20046;-66
2024/01/06 10:14:03;;;;;;;14.02;9.63;;;;;;;;;;5046890;28;20047;-66
2024/01/06 10:16:30;;;;;;;14.73;10.30;;;;;;;;;;5044183;28;20641;-66
2024/01/06 10:18:56;;;;;;;20.23;11.25;;;;;;;;;;5046506;28;20506;-66
2024/01/06 10:21:22;;;;;;;14.10;9.55;;;;;;;;;;5045988;28;20044;-66
2024/01/06 10:23:49;;;;;;;15.50;10.35;;;;;;;;;;5047354;28;20036;-66
2024/01/06 10:26:15;;;;;;;18.02;11.63;;;;;;;;;;5045637;28;20029;-66
2024/01/06 10:28:41;;;;;;;16.00;10.60;;;;;;;;;;5046095;28;20590;-66
2024/01/06 10:31:08;;;;;;;16.45;10.85;;;;;;;;;;5046034;28;20760;-66
2024/01/06 10:33:34;;;;;;;14.60;11.00;;;;;;;;;;5045539;28;20024;-66
2024/01/06 10:36:03;;;;;;;15.25;10.75;;;;;;;;;;5046987;28;20123;-66
2024/01/06 10:38:29;;;;;;;16.05;10.90;;;;;;;;;;5046428;28;20094;-66
2024/01/06 10:41:09;;;;;;;17.23;11.68;;;;;;;;;;5045897;28;20119;-66
2024/01/06 10:43:40;;;;;;;15.13;10.90;;;;;;;;;;5045869;28;20636;-66
2024/01/06 10:46:10;;;;;;;17.10;11.48;;;;;;;;;;5045545;28;20052;-67
2024/01/06 10:48:38;;;;;;;16.75;10.77;;;;;;;;;;5045839;28;20034;-66
2024/01/06 10:51:07;;;;;;;15.07;10.70;;;;;;;;;;5045875;28;20071;-66
2024/01/06 10:53:38;;;;;;;14.68;10.25;;;;;;;;;;5047117;28;20106;-67
2024/01/06 10:56:05;;;;;;;14.68;9.50;;;;;;;;;;5046557;28;20534;-66
2024/01/06 10:58:33;;;;;;;18.33;11.57;;;;;;;;;;5045374;28;20032;-66
2024/01/06 11:01:00;;;;;;;13.68;9.70;;;;;;;;;;5046453;28;20039;-67
2024/01/06 11:03:29;;;;;;;15.02;9.05;;;;;;;;;;5046679;28;20101;-66
2024/01/06 11:05:56;;;;;;;13.75;9.18;;;;;;;;;;5043608;28;20079;-66
2024/01/06 11:08:23;;;;;;;14.90;9.50;;;;;;;;;;5047158;28;20032;-66
2024/01/06 11:10:50;;;;;;;13.57;9.68;;;;;;;;;;5044795;28;20855;-66
2024/01/06 11:13:21;;;;;;;12.70;9.32;;;;;;;;;;5045122;28;20037;-66
2024/01/06 11:15:48;;;;;;;14.57;8.98;;;;;;;;;;5046328;28;20032;-66
2024/01/06 11:18:33;;;;;;;14.57;9.65;;;;;;;;;;5046659;28;20041;-66
2024/01/06 11:21:28;;;;;;;11.75;8.40;;;;;;;;;;5045079;28;20040;-66
2024/01/06 11:24:13;;;;;;;12.50;9.07;;;;;;;;;;5049570;28;20115;-66
2024/01/06 11:26:45;;;;;;;13.38;8.15;;;;;;;;;;5051208;28;20029;-66
2024/01/06 11:29:11;;;;;;;12.10;8.43;;;;;;;;;;5051422;28;20028;-66
2024/01/06 11:31:37;;;;;;;12.90;8.30;;;;;;;;;;5051858;28;20036;-66
2024/01/06 11:34:24;;;;;;;10.82;7.88;;;;;;;;;;5048896;28;20039;-66
2024/01/06 11:36:50;;;;;;;12.23;8.13;;;;;;;;;;5050268;28;20054;-66
2024/01/06 11:39:36;;;;;;;9.57;6.63;;;;;;;;;;5051083;28;20218;-66
2024/01/06 11:42:03;;;;;;;11.40;7.75;;;;;;;;;;5050254;28;20036;-66
2024/01/06 11:44:29;;;;;;;10.57;6.78;;;;;;;;;;5050436;28;20036;-66
2024/01/06 11:46:59;;;;;;;9.63;6.82;;;;;;;;;;5049976;28;20020;-66
2024/01/06 11:49:28;;;;;;;12.50;8.02;;;;;;;;;;5048729;28;20501;-66
2024/01/06 11:51:54;;;;;;;11.90;8.57;;;;;;;;;;5050425;28;20031;-66
2024/01/06 11:54:21;;;;;;;11.77;7.97;;;;;;;;;;5050129;28;20028;-66
2024/01/06 11:56:47;;;;;;;11.77;8.27;;;;;;;;;;5049653;28;20028;-66
2024/01/06 11:59:13;;;;;;;11.32;7.95;;;;;;;;;;5050408;28;20032;-66
2024/01/06 12:01:40;;;;;;;12.70;7.65;;;;;;;;;;5049432;28;20169;-66
2024/01/06 12:04:06;;;;;;;10.63;7.47;;;;;;;;;;5050297;28;20048;-66
2024/01/06 12:06:33;;;;;;;12.88;7.75;;;;;;;;;;5050830;28;20028;-66
2024/01/06 12:09:06;;;;;;;12.43;7.72;;;;;;;;;;5048167;28;20060;-66
2024/01/06 12:11:32;;;;;;;11.27;7.00;;;;;;;;;;5050455;28;20039;-66
2024/01/06 12:13:58;;;;;;;12.20;7.25;;;;;;;;;;5050035;28;20040;-66
2024/01/06 12:16:27;;;;;;;11.40;6.82;;;;;;;;;;5048880;28;20127;-66
2024/01/06 12:18:59;;;;;;;10.25;6.28;;;;;;;;;;5049517;28;21708;-66
2024/01/06 12:21:25;;;;;;;10.50;6.10;;;;;;;;;;5049802;28;20047;-66
2024/01/06 12:23:51;;;;;;;9.73;6.35;;;;;;;;;;5049723;28;20041;-66
2024/01/06 12:26:18;;;;;;;10.15;6.60;;;;;;;;;;5048120;28;20601;-66
2024/01/06 12:28:47;;;;;;;10.95;6.60;;;;;;;;;;5049614;28;20956;-66
2024/01/06 12:31:13;;;;;;;9.90;6.70;;;;;;;;;;5047906;28;20036;-66
2024/01/06 12:33:40;;;;;;;11.80;7.10;;;;;;;;;;5048675;28;20032;-66
2024/01/06 12:36:09;;;;;;;9.73;6.38;;;;;;;;;;5047598;28;21429;-66
2024/01/06 12:38:35;;;;;;;9.55;5.70;;;;;;;;;;5047933;28;20036;-66
2024/01/06 12:41:02;;;;;;;12.77;6.40;;;;;;;;;;5047460;28;20047;-66
2024/01/06 12:43:28;;;;;;;11.23;6.57;;;;;;;;;;5046744;28;20117;-66
2024/01/06 12:45:57;;;;;;;9.85;6.05;;;;;;;;;;5048066;28;20086;-66
2024/01/06 12:48:23;;;;;;;9.02;6.05;;;;;;;;;;5042805;28;20142;-66
2024/01/06 12:50:49;;;;;;;10.90;7.00;;;;;;;;;;5042319;28;20811;-66
2024/01/06 12:53:17;;;;;;;11.15;6.70;;;;;;;;;;5042771;28;21183;-68
2024/01/06 12:55:43;;;;;;;10.13;6.32;;;;;;;;;;5043113;28;20116;-66
2024/01/06 12:58:09;;;;;;;9.10;6.00;;;;;;;;;;5042656;28;20040;-66
2024/01/06 13:00:35;;;;;;;10.77;6.18;;;;;;;;;;5041441;28;20164;-66
2024/01/06 13:03:01;;;;;;;9.95;6.05;;;;;;;;;;5040525;28;20079;-66
2024/01/06 13:05:27;;;;;;;9.57;5.82;;;;;;;;;;5042569;28;20056;-66
2024/01/06 13:07:53;;;;;;;9.88;6.40;;;;;;;;;;5043287;28;20046;-66
2024/01/06 13:10:19;;;;;;;9.07;5.80;;;;;;;;;;5043837;28;20119;-66
2024/01/06 13:12:45;;;;;;;10.55;6.15;;;;;;;;;;5042546;28;21022;-66
2024/01/06 13:15:11;;;;;;;10.75;6.60;;;;;;;;;;5043874;28;20037;-66
2024/01/06 13:17:38;;;;;;;12.05;7.05;;;;;;;;;;5039795;28;20078;-66
2024/01/06 13:20:05;;;;;;;9.85;6.30;;;;;;;;;;5045338;28;20047;-66
2024/01/06 13:22:31;;;;;;;17.75;8.18;;;;;;;;;;5045053;28;20063;-66
2024/01/06 13:24:58;;;;;;;10.63;6.63;;;;;;;;;;5044920;28;20044;-66
2024/01/06 13:27:26;;;;;;;11.30;6.40;;;;;;;;;;5042872;28;20032;-66
2024/01/06 13:29:53;;;;;;;11.10;6.10;;;;;;;;;;5043767;28;20576;-66
2024/01/06 13:32:19;;;;;;;11.30;6.80;;;;;;;;;;5042999;28;20059;-66
2024/01/06 13:34:45;;;;;;;10.70;6.30;;;;;;;;;;5044183;28;20039;-66
2024/01/06 13:37:11;;;;;;;11.40;6.82;;;;;;;;;;5043148;28;20039;-66
2024/01/06 13:39:37;;;;;;;12.43;7.50;;;;;;;;;;5025694;28;20048;-66
2024/01/06 13:42:04;;;;;;;12.52;6.43;;;;;;;;;;5044210;28;20028;-66
2024/01/06 13:44:30;;;;;;;11.38;6.78;;;;;;;;;;5043992;28;20071;-66
2024/01/06 13:46:56;;;;;;;11.68;7.15;;;;;;;;;;5043732;28;20024;-66
2024/01/06 13:49:24;;;;;;;11.00;6.95;;;;;;;;;;5043921;28;20070;-67
2024/01/06 13:51:50;;;;;;;10.30;6.47;;;;;;;;;;5044814;28;20033;-66
2024/01/06 13:54:17;;;;;;;13.25;6.90;;;;;;;;;;5044050;28;20858;-66
2024/01/06 13:56:43;;;;;;;11.48;6.53;;;;;;;;;;5044815;28;20047;-66
2024/01/06 13:59:09;;;;;;;10.30;6.65;;;;;;;;;;5043460;28;20101;-66
2024/01/06 14:01:35;;;;;;;9.90;6.47;;;;;;;;;;5044719;28;20036;-66
2024/01/06 14:04:02;;;;;;;12.00;6.95;;;;;;;;;;5043248;28;20514;-66
2024/01/06 14:06:30;;;;;;;11.85;7.30;;;;;;;;;;5044899;28;20029;-66
2024/01/06 14:08:59;;;;;;;11.45;7.50;;;;;;;;;;5043688;28;20083;-66
2024/01/06 14:11:26;;;;;;;14.40;7.75;;;;;;;;;;5044341;28;20632;-66
2024/01/06 14:13:52;;;;;;;11.25;6.82;;;;;;;;;;5044717;28;20037;-66
2024/01/06 14:16:19;;;;;;;11.32;7.13;;;;;;;;;;5042717;28;20035;-66
2024/01/06 14:18:45;;;;;;;12.50;7.90;;;;;;;;;;5043020;28;20253;-66
2024/01/06 14:21:14;;;;;;;11.43;7.22;;;;;;;;;;5044412;28;21051;-66
2024/01/06 14:23:40;;;;;;;12.63;6.93;;;;;;;;;;5047087;28;20080;-67